createdAt,value
2022-11-15T00:00:11.917Z,12.75
2022-11-15T00:01:19.636Z,19.02
2022-11-15T00:02:21.201Z,12.52
2022-11-15T00:03:26.102Z,13.82
2022-11-15T00:04:28.584Z,12.15
2022-11-15T00:05:30.068Z,15.18
2022-11-15T00:06:33.044Z,11.65
2022-11-15T00:07:54.522Z,10.20
2022-11-15T00:08:59.454Z,12.48
2022-11-15T00:10:01.027Z,12.10
2022-11-15T00:11:05.138Z,12.05
2022-11-15T00:12:06.763Z,11.77
2022-11-15T00:13:10.714Z,11.77
2022-11-15T00:14:12.455Z,12.30
2022-11-15T00:15:15.025Z,8.57
2022-11-15T00:16:16.779Z,12.80
2022-11-15T00:17:19.302Z,13.68
2022-11-15T00:18:20.902Z,10.95
2022-11-15T00:19:23.403Z,13.25
2022-11-15T00:20:24.942Z,10.57
2022-11-15T00:21:28.113Z,14.75
2022-11-15T00:22:33.217Z,11.45
2022-11-15T00:23:36.003Z,14.38
2022-11-15T00:24:37.885Z,10.40
2022-11-15T00:25:40.476Z,11.82
2022-11-15T00:26:43.637Z,11.32
2022-11-15T00:27:47.132Z,13.10
2022-11-15T00:28:48.694Z,12.45
2022-11-15T00:29:51.181Z,16.05
2022-11-15T00:31:01.951Z,13.23
2022-11-15T00:32:04.499Z,13.85
2022-11-15T00:33:07.315Z,11.82
2022-11-15T00:34:11.496Z,15.80
2022-11-15T00:35:13.155Z,13.02
2022-11-15T00:36:16.084Z,14.50
2022-11-15T00:37:17.674Z,12.35
2022-11-15T00:38:20.166Z,10.73
2022-11-15T00:39:21.692Z,11.05
2022-11-15T00:40:24.213Z,9.30
2022-11-15T00:41:25.862Z,13.30
2022-11-15T00:42:29.974Z,14.50
2022-11-15T00:43:32.487Z,11.70
2022-11-15T00:44:35.272Z,13.95
2022-11-15T00:45:36.795Z,18.27
2022-11-15T00:46:39.260Z,10.13
2022-11-15T00:47:41.273Z,10.30
2022-11-15T00:48:43.854Z,12.65
2022-11-15T00:49:45.405Z,9.80
2022-11-15T00:50:48.045Z,16.67
2022-11-15T00:51:50.555Z,11.70
2022-11-15T00:52:52.247Z,12.63
2022-11-15T00:53:54.786Z,11.02
2022-11-15T00:54:56.308Z,9.32
2022-11-15T00:55:58.778Z,16.50
2022-11-15T00:57:00.304Z,10.68
2022-11-15T00:58:04.512Z,10.45
2022-11-15T00:59:07.103Z,11.80
2022-11-15T01:00:09.843Z,10.93
2022-11-15T01:01:15.022Z,9.07
2022-11-15T01:02:16.693Z,10.50
2022-11-15T01:03:19.218Z,13.43
2022-11-15T01:04:20.720Z,12.95
2022-11-15T01:05:23.255Z,12.90
2022-11-15T01:06:24.772Z,10.10
2022-11-15T01:07:27.406Z,14.27
2022-11-15T01:08:29.750Z,13.32
2022-11-15T01:09:32.285Z,17.10
2022-11-15T01:10:34.625Z,10.45
2022-11-15T01:11:37.154Z,9.32
2022-11-15T01:12:38.761Z,13.95
2022-11-15T01:13:42.679Z,10.20
2022-11-15T01:14:44.209Z,12.85
2022-11-15T01:15:46.738Z,11.93
2022-11-15T01:16:48.282Z,9.65
2022-11-15T01:17:50.750Z,12.93
2022-11-15T01:18:52.291Z,9.45
2022-11-15T01:19:54.810Z,10.93
2022-11-15T01:20:58.945Z,15.10
2022-11-15T01:22:01.427Z,13.35
2022-11-15T01:23:02.953Z,11.60
2022-11-15T01:24:06.201Z,10.15
2022-11-15T01:25:07.702Z,10.48
2022-11-15T01:26:13.419Z,11.50
2022-11-15T01:27:15.953Z,9.32
2022-11-15T01:28:18.488Z,11.63
2022-11-15T01:29:21.528Z,14.35
2022-11-15T01:30:24.056Z,14.48
2022-11-15T01:31:29.565Z,11.40
2022-11-15T01:32:32.055Z,10.05
2022-11-15T01:33:35.758Z,12.18
2022-11-15T01:34:38.417Z,12.50
2022-11-15T01:35:40.955Z,12.15
2022-11-15T01:36:43.499Z,9.23
2022-11-15T01:37:45.000Z,11.13
2022-11-15T01:38:47.604Z,12.20
2022-11-15T01:39:49.111Z,10.60
2022-11-15T01:40:51.669Z,10.60
2022-11-15T01:41:53.273Z,13.73
2022-11-15T01:42:55.802Z,11.05
2022-11-15T01:43:59.111Z,10.32
2022-11-15T01:45:03.039Z,9.70
2022-11-15T01:46:07.634Z,11.52
2022-11-15T01:47:13.409Z,11.95
2022-11-15T01:48:15.003Z,11.20
2022-11-15T01:49:21.383Z,11.73
2022-11-15T01:50:26.057Z,10.65
2022-11-15T01:51:32.839Z,10.23
2022-11-15T01:52:37.821Z,13.68
2022-11-15T01:53:43.353Z,13.95
2022-11-15T01:54:46.541Z,12.95
2022-11-15T01:55:48.710Z,12.70
2022-11-15T01:56:54.759Z,12.60
2022-11-15T01:58:00.549Z,16.45
2022-11-15T01:59:06.260Z,11.32
2022-11-15T02:00:11.154Z,10.45
2022-11-15T02:01:17.124Z,9.77
2022-11-15T02:02:18.796Z,12.65
2022-11-15T02:03:25.074Z,11.60
2022-11-15T02:04:29.431Z,12.32
2022-11-15T02:05:33.438Z,12.32
2022-11-15T02:06:35.806Z,14.13
2022-11-15T02:07:38.602Z,12.02
2022-11-15T02:08:40.109Z,15.07
2022-11-15T02:09:46.576Z,13.18
2022-11-15T02:10:48.542Z,10.70
2022-11-15T02:11:52.781Z,13.60
2022-11-15T02:12:56.427Z,13.60
2022-11-15T02:14:01.326Z,10.77
2022-11-15T02:15:05.799Z,12.65
2022-11-15T02:16:18.294Z,10.50
2022-11-15T02:17:38.555Z,9.98
2022-11-15T02:18:47.734Z,12.85
2022-11-15T02:20:21.121Z,12.07
2022-11-15T02:21:30.792Z,10.52
2022-11-15T02:22:44.463Z,12.15
2022-11-15T02:24:24.531Z,13.02
2022-11-15T02:25:41.881Z,10.15
2022-11-15T02:27:18.141Z,13.27
2022-11-15T02:28:39.119Z,10.50
2022-11-15T02:30:04.899Z,14.63
2022-11-15T02:31:15.639Z,9.60
2022-11-15T02:32:22.582Z,9.50
2022-11-15T02:33:35.057Z,15.55
2022-11-15T02:34:47.171Z,10.88
2022-11-15T02:35:59.431Z,11.57
2022-11-15T02:37:08.924Z,11.38
2022-11-15T02:38:18.071Z,13.15
2022-11-15T02:39:30.651Z,12.38
2022-11-15T02:40:40.011Z,12.02
2022-11-15T02:41:49.868Z,12.35
2022-11-15T02:43:22.602Z,10.30
2022-11-15T02:44:27.830Z,11.18
2022-11-15T02:45:33.697Z,12.00
2022-11-15T02:46:59.113Z,12.73
2022-11-15T02:48:05.382Z,13.98
2022-11-15T02:49:06.955Z,11.48
2022-11-15T02:50:12.548Z,11.00
2022-11-15T02:51:14.818Z,11.75
2022-11-15T02:52:18.813Z,15.10
2022-11-15T02:53:24.985Z,10.23
2022-11-15T02:54:30.412Z,12.25
2022-11-15T02:55:33.772Z,11.68
2022-11-15T02:56:36.607Z,15.25
2022-11-15T02:57:48.266Z,14.25
2022-11-15T02:59:02.505Z,12.50
2022-11-15T03:00:10.133Z,10.38
2022-11-15T03:01:22.913Z,12.30
2022-11-15T03:02:37.737Z,12.10
2022-11-15T03:03:54.306Z,11.30
2022-11-15T03:04:58.597Z,12.85
2022-11-15T03:06:11.311Z,12.75
2022-11-15T03:07:18.596Z,13.63
2022-11-15T03:08:34.370Z,11.10
2022-11-15T03:09:43.511Z,13.00
2022-11-15T03:10:58.410Z,14.40
2022-11-15T03:12:08.970Z,9.27
2022-11-15T03:13:20.585Z,10.88
2022-11-15T03:14:27.305Z,12.55
2022-11-15T03:15:32.605Z,9.07
2022-11-15T03:16:40.358Z,12.50
2022-11-15T03:17:50.087Z,10.52
2022-11-15T03:18:57.703Z,12.52
2022-11-15T03:20:02.118Z,11.50
2022-11-15T03:21:09.075Z,14.57
2022-11-15T03:22:15.196Z,12.52
2022-11-15T03:23:19.351Z,9.70
2022-11-15T03:24:26.056Z,14.52
2022-11-15T03:25:31.111Z,13.02
2022-11-15T03:26:35.380Z,11.32
2022-11-15T03:27:42.962Z,12.65
2022-11-15T03:28:50.750Z,11.88
2022-11-15T03:29:59.526Z,14.48
2022-11-15T03:31:23.464Z,13.85
2022-11-15T03:32:29.845Z,11.00
2022-11-15T03:33:33.268Z,11.80
2022-11-15T03:34:43.385Z,12.90
2022-11-15T03:35:46.958Z,11.45
2022-11-15T03:36:50.683Z,10.43
2022-11-15T03:37:58.513Z,12.00
2022-11-15T03:39:06.788Z,12.77
2022-11-15T03:40:10.494Z,10.00
2022-11-15T03:41:19.419Z,10.27
2022-11-15T03:42:27.348Z,12.55
2022-11-15T03:43:38.131Z,11.55
2022-11-15T03:44:46.893Z,12.82
2022-11-15T03:45:57.111Z,11.48
2022-11-15T03:47:04.307Z,13.65
2022-11-15T03:48:14.679Z,14.85
2022-11-15T03:49:30.392Z,14.25
2022-11-15T03:50:44.472Z,9.55
2022-11-15T03:51:46.169Z,10.30
2022-11-15T03:52:50.132Z,10.52
2022-11-15T03:53:52.101Z,9.80
2022-11-15T03:54:57.151Z,11.75
2022-11-15T03:55:58.911Z,9.43
2022-11-15T03:57:01.424Z,10.55
2022-11-15T03:58:03.159Z,9.23
2022-11-15T03:59:05.819Z,12.73
2022-11-15T04:00:08.797Z,11.50
2022-11-15T04:01:11.807Z,11.07
2022-11-15T04:02:14.034Z,17.35
2022-11-15T04:03:16.520Z,12.65
2022-11-15T04:04:18.048Z,12.13
2022-11-15T04:05:22.277Z,9.48
2022-11-15T04:06:23.827Z,11.70
2022-11-15T04:07:26.633Z,10.45
2022-11-15T04:08:28.479Z,11.40
2022-11-15T04:09:30.984Z,9.02
2022-11-15T04:10:32.574Z,10.88
2022-11-15T04:11:35.105Z,7.72
2022-11-15T04:12:40.271Z,8.50
2022-11-15T04:13:42.724Z,10.65
2022-11-15T04:15:04.324Z,10.00
2022-11-15T04:16:07.048Z,8.18
2022-11-15T04:17:08.580Z,8.95
2022-11-15T04:18:11.085Z,10.90
2022-11-15T04:19:33.654Z,12.73
2022-11-15T04:20:55.289Z,8.02
2022-11-15T04:22:15.394Z,8.05
2022-11-15T04:23:37.655Z,10.98
2022-11-15T04:24:40.103Z,16.98
2022-11-15T04:25:42.467Z,11.70
2022-11-15T04:26:45.069Z,9.20
2022-11-15T04:27:46.609Z,8.25
2022-11-15T04:29:03.074Z,8.73
2022-11-15T04:30:06.931Z,12.23
2022-11-15T04:31:08.451Z,10.73
2022-11-15T04:32:10.917Z,9.23
2022-11-15T04:33:12.619Z,10.70
2022-11-15T04:34:15.207Z,11.48
2022-11-15T04:35:16.737Z,7.18
2022-11-15T04:36:38.035Z,9.32
2022-11-15T04:37:45.066Z,8.82
2022-11-15T04:38:49.553Z,10.30
2022-11-15T04:39:51.992Z,10.40
2022-11-15T04:40:53.525Z,8.68
2022-11-15T04:41:56.053Z,8.32
2022-11-15T04:43:03.578Z,9.38
2022-11-15T04:44:05.688Z,9.90
2022-11-15T04:45:09.010Z,9.23
2022-11-15T04:46:10.529Z,7.72
2022-11-15T04:47:13.372Z,10.77
2022-11-15T04:48:14.896Z,10.35
2022-11-15T04:49:17.383Z,11.18
2022-11-15T04:50:19.104Z,10.77
2022-11-15T04:51:23.412Z,9.38
2022-11-15T04:52:24.950Z,10.52
2022-11-15T04:53:27.513Z,8.85
2022-11-15T04:54:29.083Z,8.77
2022-11-15T04:55:31.599Z,7.50
2022-11-15T04:56:33.163Z,8.40
2022-11-15T04:57:35.736Z,7.18
2022-11-15T04:58:37.406Z,8.32
2022-11-15T04:59:39.914Z,7.20
2022-11-15T05:00:41.588Z,11.13
2022-11-15T05:01:45.217Z,7.97
2022-11-15T05:03:05.624Z,12.05
2022-11-15T05:04:20.101Z,7.53
2022-11-15T05:05:22.617Z,12.02
2022-11-15T05:06:25.563Z,11.43
2022-11-15T05:07:28.090Z,7.68
2022-11-15T05:08:29.794Z,10.73
2022-11-15T05:09:32.442Z,9.25
2022-11-15T05:10:34.271Z,11.68
2022-11-15T05:11:36.823Z,10.38
2022-11-15T05:12:38.668Z,9.15
2022-11-15T05:13:41.212Z,11.57
2022-11-15T05:14:42.836Z,7.07
2022-11-15T05:15:45.556Z,9.60
2022-11-15T05:16:48.094Z,10.60
2022-11-15T05:17:49.674Z,8.98
2022-11-15T05:18:53.013Z,10.13
2022-11-15T05:19:54.563Z,9.02
2022-11-15T05:20:57.150Z,8.18
2022-11-15T05:22:00.279Z,12.50
2022-11-15T05:23:03.429Z,10.88
2022-11-15T05:24:06.136Z,11.85
2022-11-15T05:25:09.987Z,6.80
2022-11-15T05:26:11.903Z,9.02
2022-11-15T05:27:14.406Z,9.30
2022-11-15T05:28:15.909Z,7.75
2022-11-15T05:29:18.404Z,11.07
2022-11-15T05:30:19.929Z,8.88
2022-11-15T05:31:23.043Z,10.27
2022-11-15T05:32:26.054Z,8.63
2022-11-15T05:33:27.618Z,7.80
2022-11-15T05:34:30.114Z,9.85
2022-11-15T05:35:34.896Z,8.50
2022-11-15T05:36:39.593Z,11.90
2022-11-15T05:37:42.595Z,16.00
2022-11-15T05:38:45.788Z,9.98
2022-11-15T05:39:47.315Z,8.55
2022-11-15T05:40:49.885Z,9.95
2022-11-15T05:41:55.947Z,11.15
2022-11-15T05:42:59.407Z,9.00
2022-11-15T05:44:02.151Z,9.30
2022-11-15T05:45:07.684Z,12.35
2022-11-15T05:46:09.878Z,12.85
2022-11-15T05:47:15.561Z,16.08
2022-11-15T05:48:17.300Z,8.77
2022-11-15T05:49:22.336Z,12.88
2022-11-15T05:50:24.082Z,9.90
2022-11-15T05:51:28.653Z,7.60
2022-11-15T05:52:35.881Z,10.18
2022-11-15T05:53:39.782Z,9.18
2022-11-15T05:54:41.812Z,10.00
2022-11-15T05:55:44.463Z,8.18
2022-11-15T05:56:47.548Z,10.10
2022-11-15T05:57:49.232Z,7.82
2022-11-15T05:58:54.450Z,15.68
2022-11-15T05:59:59.823Z,8.73
2022-11-15T06:01:02.627Z,10.48
2022-11-15T06:02:04.309Z,13.07
2022-11-15T06:03:07.069Z,8.95
2022-11-15T06:04:08.634Z,9.23
2022-11-15T06:05:11.175Z,8.07
2022-11-15T06:06:16.370Z,8.23
2022-11-15T06:07:19.248Z,8.65
2022-11-15T06:08:21.079Z,10.23
2022-11-15T06:09:24.887Z,8.30
2022-11-15T06:10:26.832Z,11.00
2022-11-15T06:11:29.566Z,8.43
2022-11-15T06:12:31.091Z,7.18
2022-11-15T06:13:34.096Z,8.13
2022-11-15T06:14:36.840Z,11.00
2022-11-15T06:15:38.470Z,11.02
2022-11-15T06:16:41.007Z,10.65
2022-11-15T06:17:42.491Z,8.25
2022-11-15T06:18:44.977Z,10.70
2022-11-15T06:19:46.486Z,7.35
2022-11-15T06:20:48.979Z,9.80
2022-11-15T06:21:50.493Z,11.93
2022-11-15T06:22:52.990Z,11.05
2022-11-15T06:23:55.066Z,9.07
2022-11-15T06:25:02.837Z,9.18
2022-11-15T06:26:06.837Z,9.10
2022-11-15T06:27:09.498Z,10.43
2022-11-15T06:28:11.160Z,7.70
2022-11-15T06:29:13.646Z,10.25
2022-11-15T06:30:15.309Z,14.02
2022-11-15T06:31:17.965Z,10.90
2022-11-15T06:32:20.471Z,9.55
2022-11-15T06:33:22.931Z,9.18
2022-11-15T06:34:25.480Z,9.27
2022-11-15T06:35:27.091Z,8.43
2022-11-15T06:36:29.582Z,7.82
2022-11-15T06:37:31.152Z,9.50
2022-11-15T06:38:34.010Z,11.45
2022-11-15T06:39:35.549Z,10.30
2022-11-15T06:40:40.456Z,10.82
2022-11-15T06:41:42.929Z,8.90
2022-11-15T06:42:44.484Z,10.38
2022-11-15T06:43:47.198Z,10.13
2022-11-15T06:44:48.694Z,6.72
2022-11-15T06:45:51.186Z,8.65
2022-11-15T06:46:53.649Z,7.72
2022-11-15T06:47:55.324Z,9.68
2022-11-15T06:48:57.979Z,13.65
2022-11-15T06:49:59.684Z,8.60
2022-11-15T06:51:04.895Z,8.30
2022-11-15T06:52:07.464Z,7.68
2022-11-15T06:53:09.049Z,9.05
2022-11-15T06:54:11.569Z,7.07
2022-11-15T06:55:13.363Z,12.60
2022-11-15T06:56:17.185Z,9.48
2022-11-15T06:57:18.738Z,6.97
2022-11-15T06:58:22.954Z,5.30
2022-11-15T06:59:24.544Z,10.30
2022-11-15T07:00:27.046Z,5.15
2022-11-15T07:01:29.622Z,7.15
2022-11-15T07:02:31.626Z,7.38
2022-11-15T07:03:38.556Z,8.32
2022-11-15T07:04:40.084Z,15.02
2022-11-15T07:05:42.647Z,6.35
2022-11-15T07:06:47.126Z,4.65
2022-11-15T07:07:54.144Z,6.75
2022-11-15T07:08:55.667Z,5.18
2022-11-15T07:09:58.159Z,9.13
2022-11-15T07:11:01.267Z,7.75
2022-11-15T07:12:07.828Z,9.82
2022-11-15T07:13:09.590Z,6.65
2022-11-15T07:14:12.217Z,8.50
2022-11-15T07:15:13.883Z,9.50
2022-11-15T07:16:16.377Z,4.70
2022-11-15T07:17:17.885Z,10.38
2022-11-15T07:18:20.464Z,6.35
2022-11-15T07:19:22.003Z,8.20
2022-11-15T07:20:24.619Z,6.25
2022-11-15T07:21:27.761Z,5.43
2022-11-15T07:22:30.364Z,7.90
2022-11-15T07:23:32.717Z,4.97
2022-11-15T07:24:37.743Z,5.97
2022-11-15T07:25:40.354Z,5.72
2022-11-15T07:26:42.850Z,12.27
2022-11-15T07:27:55.231Z,4.28
2022-11-15T07:28:57.762Z,6.03
2022-11-15T07:30:00.403Z,17.92
2022-11-15T07:31:03.710Z,6.95
2022-11-15T07:32:06.351Z,7.50
2022-11-15T07:33:07.889Z,8.63
2022-11-15T07:34:12.762Z,8.93
2022-11-15T07:35:14.388Z,6.45
2022-11-15T07:36:16.912Z,6.45
2022-11-15T07:37:18.570Z,8.95
2022-11-15T07:38:21.434Z,6.70
2022-11-15T07:39:22.916Z,7.30
2022-11-15T07:40:26.170Z,6.95
2022-11-15T07:41:28.055Z,4.20
2022-11-15T07:42:51.099Z,5.65
2022-11-15T07:43:54.941Z,9.07
2022-11-15T07:44:56.560Z,4.43
2022-11-15T07:45:59.853Z,4.97
2022-11-15T07:47:01.565Z,7.20
2022-11-15T07:48:04.183Z,6.03
2022-11-15T07:49:06.851Z,5.60
2022-11-15T07:50:08.754Z,6.75
2022-11-15T07:51:14.367Z,7.93
2022-11-15T07:52:16.163Z,8.25
2022-11-15T07:53:18.665Z,7.90
2022-11-15T07:54:20.147Z,5.82
2022-11-15T07:55:23.080Z,9.48
2022-11-15T07:56:24.613Z,6.18
2022-11-15T07:57:27.093Z,5.88
2022-11-15T07:58:29.547Z,6.97
2022-11-15T07:59:32.463Z,14.20
2022-11-15T08:00:36.293Z,7.78
2022-11-15T08:01:39.279Z,8.27
2022-11-15T08:02:42.433Z,12.65
2022-11-15T08:03:44.152Z,6.95
2022-11-15T08:04:46.617Z,8.65
2022-11-15T08:05:51.769Z,6.57
2022-11-15T08:06:54.363Z,5.97
2022-11-15T08:07:56.131Z,8.18
2022-11-15T08:08:58.630Z,4.55
2022-11-15T08:10:02.020Z,3.45
2022-11-15T08:11:04.996Z,4.75
2022-11-15T08:12:06.674Z,4.15
2022-11-15T08:13:11.162Z,3.72
2022-11-15T08:14:13.667Z,5.93
2022-11-15T08:15:16.533Z,6.63
2022-11-15T08:16:18.999Z,3.63
2022-11-15T08:17:21.558Z,4.65
2022-11-15T08:18:24.269Z,7.05
2022-11-15T08:19:26.800Z,5.05
2022-11-15T08:20:31.329Z,4.03
2022-11-15T08:21:32.870Z,3.60
2022-11-15T08:22:35.623Z,3.38
2022-11-15T08:23:37.718Z,5.75
2022-11-15T08:24:40.326Z,5.38
2022-11-15T08:25:41.843Z,4.90
2022-11-15T08:26:44.387Z,4.85
2022-11-15T08:27:46.970Z,7.40
2022-11-15T08:28:48.522Z,4.15
2022-11-15T08:29:53.397Z,6.35
2022-11-15T08:31:00.654Z,4.53
2022-11-15T08:32:02.199Z,4.15
2022-11-15T08:33:04.861Z,3.80
2022-11-15T08:34:06.943Z,5.00
2022-11-15T08:35:09.879Z,4.07
2022-11-15T08:36:15.051Z,6.00
2022-11-15T08:37:17.506Z,6.28
2022-11-15T08:38:18.994Z,4.47
2022-11-15T08:39:21.467Z,4.65
2022-11-15T08:40:23.702Z,5.07
2022-11-15T08:41:29.066Z,3.75
2022-11-15T08:42:31.617Z,8.38
2022-11-15T08:43:36.249Z,6.60
2022-11-15T08:44:38.935Z,4.65
2022-11-15T08:45:41.420Z,5.05
2022-11-15T08:46:47.353Z,5.43
2022-11-15T08:47:54.185Z,5.47
2022-11-15T08:48:57.241Z,5.32
2022-11-15T08:49:58.932Z,5.72
2022-11-15T08:51:01.499Z,5.97
2022-11-15T08:52:03.546Z,11.20
2022-11-15T08:53:07.732Z,5.38
2022-11-15T08:54:10.437Z,5.10
2022-11-15T08:55:13.041Z,9.00
2022-11-15T08:56:15.978Z,4.63
2022-11-15T08:57:18.525Z,5.57
2022-11-15T08:58:20.179Z,12.00
2022-11-15T08:59:22.795Z,10.43
2022-11-15T09:00:25.388Z,8.85
2022-11-15T09:01:27.895Z,9.15
2022-11-15T09:02:31.769Z,6.35
2022-11-15T09:03:36.262Z,5.38
2022-11-15T09:04:38.811Z,4.95
2022-11-15T09:05:41.459Z,5.35
2022-11-15T09:06:43.993Z,5.47
2022-11-15T09:07:45.503Z,4.65
2022-11-15T09:08:49.132Z,3.30
2022-11-15T09:09:51.637Z,5.10
2022-11-15T09:10:53.230Z,3.42
2022-11-15T09:12:01.193Z,4.57
2022-11-15T09:13:05.064Z,7.72
2022-11-15T09:14:07.622Z,4.78
2022-11-15T09:15:11.112Z,3.35
2022-11-15T09:16:13.831Z,3.85
2022-11-15T09:17:18.085Z,6.72
2022-11-15T09:18:24.179Z,5.40
2022-11-15T09:19:25.848Z,2.92
2022-11-15T09:20:28.361Z,3.83
2022-11-15T09:21:31.073Z,2.42
2022-11-15T09:22:33.563Z,4.75
2022-11-15T09:23:36.078Z,5.22
2022-11-15T09:24:37.623Z,4.20
2022-11-15T09:25:40.176Z,4.90
2022-11-15T09:26:42.986Z,4.22
2022-11-15T09:27:45.472Z,3.28
2022-11-15T09:28:47.172Z,3.13
2022-11-15T09:29:49.735Z,3.20
2022-11-15T09:30:51.238Z,5.15
2022-11-15T09:31:53.838Z,5.88
2022-11-15T09:32:56.336Z,6.93
2022-11-15T09:33:59.269Z,5.60
2022-11-15T09:35:02.219Z,3.25
2022-11-15T09:36:06.161Z,6.38
2022-11-15T09:37:08.614Z,4.20
2022-11-15T09:38:10.258Z,4.00
2022-11-15T09:39:12.711Z,2.30
2022-11-15T09:40:17.642Z,4.45
2022-11-15T09:41:59.845Z,2.08
2022-11-15T09:43:12.567Z,2.63
2022-11-15T09:44:31.490Z,5.18
2022-11-15T09:45:39.114Z,2.92
2022-11-15T09:46:51.858Z,3.45
2022-11-15T09:48:21.051Z,5.80
2022-11-15T09:49:25.375Z,3.95
2022-11-15T09:50:35.013Z,3.75
2022-11-15T09:51:49.926Z,4.32
2022-11-15T09:52:51.450Z,24.83
2022-11-15T09:55:34.338Z,2.42
2022-11-15T09:56:39.788Z,3.22
2022-11-15T09:57:58.113Z,4.88
2022-11-15T09:59:23.349Z,2.53
2022-11-15T10:00:46.632Z,3.38
2022-11-15T10:01:59.434Z,4.25
2022-11-15T10:03:23.251Z,2.85
2022-11-15T10:04:28.117Z,17.70
2022-11-15T10:05:30.088Z,3.47
2022-11-15T10:06:36.647Z,3.10
2022-11-15T10:07:47.770Z,2.65
2022-11-15T10:08:55.807Z,5.20
2022-11-15T10:10:06.084Z,4.50
2022-11-15T10:12:34.216Z,2.20
2022-11-15T10:13:41.285Z,1.88
2022-11-15T10:14:44.349Z,2.50
2022-11-15T10:15:49.238Z,4.50
2022-11-15T10:17:18.642Z,4.53
2022-11-15T10:18:30.869Z,4.20
2022-11-15T10:19:40.541Z,2.70
2022-11-15T10:20:49.433Z,3.78
2022-11-15T10:22:01.300Z,3.25
2022-11-15T10:23:08.583Z,3.95
2022-11-15T10:24:13.689Z,3.38
2022-11-15T10:25:22.319Z,3.58
2022-11-15T10:26:25.582Z,5.93
2022-11-15T10:27:27.152Z,3.55
2022-11-15T10:28:31.665Z,3.40
2022-11-15T10:29:33.437Z,2.63
2022-11-15T10:30:38.754Z,1.85
2022-11-15T10:31:43.217Z,5.38
2022-11-15T10:32:47.987Z,2.47
2022-11-15T10:33:51.357Z,2.22
2022-11-15T10:34:55.279Z,2.95
2022-11-15T10:36:20.040Z,2.55
2022-11-15T10:37:30.973Z,1.80
2022-11-15T10:38:32.891Z,2.03
2022-11-15T10:39:36.036Z,3.08
2022-11-15T10:40:40.822Z,3.65
2022-11-15T10:41:43.264Z,4.40
2022-11-15T10:42:45.824Z,7.75
2022-11-15T10:44:03.629Z,4.28
2022-11-15T10:45:25.653Z,2.55
2022-11-15T10:47:50.642Z,5.72
2022-11-15T10:48:53.323Z,2.40
2022-11-15T10:50:02.658Z,2.10
2022-11-15T10:51:23.262Z,2.67
2022-11-15T10:52:25.464Z,2.35
2022-11-15T10:53:35.174Z,6.95
2022-11-15T10:54:40.851Z,2.10
2022-11-15T10:55:48.540Z,2.95
2022-11-15T10:56:52.009Z,7.40
2022-11-15T10:57:56.725Z,6.00
2022-11-15T10:58:59.902Z,1.45
2022-11-15T11:00:07.689Z,3.80
2022-11-15T11:01:14.626Z,5.03
2022-11-15T11:02:30.220Z,2.88
2022-11-15T11:03:38.491Z,4.80
2022-11-15T11:04:50.885Z,2.47
2022-11-15T11:06:06.221Z,3.35
2022-11-15T11:07:22.576Z,3.05
2022-11-15T11:08:25.348Z,5.50
2022-11-15T11:09:32.707Z,1.83
2022-11-15T11:10:51.146Z,2.47
2022-11-15T11:11:54.914Z,3.63
2022-11-15T11:12:57.707Z,5.05
2022-11-15T11:14:13.876Z,3.58
2022-11-15T11:15:19.381Z,4.03
2022-11-15T11:16:43.222Z,2.72
2022-11-15T11:17:59.371Z,3.78
2022-11-15T11:19:13.599Z,1.60
2022-11-15T11:20:22.713Z,2.60
2022-11-15T11:21:39.748Z,4.07
2022-11-15T11:22:54.106Z,5.10
2022-11-15T11:24:04.266Z,3.20
2022-11-15T11:25:18.626Z,3.58
2022-11-15T11:26:37.478Z,3.03
2022-11-15T11:27:48.920Z,3.40
2022-11-15T11:29:02.585Z,1.67
2022-11-15T11:30:11.696Z,4.35
2022-11-15T11:31:26.554Z,4.75
2022-11-15T11:32:42.609Z,2.67
2022-11-15T11:33:56.864Z,15.57
2022-11-15T11:35:10.387Z,2.28
2022-11-15T11:36:22.926Z,3.55
2022-11-15T11:37:33.847Z,5.07
2022-11-15T11:38:46.033Z,2.58
2022-11-15T11:40:06.135Z,8.55
2022-11-15T11:41:22.171Z,2.28
2022-11-15T11:42:35.300Z,2.67
2022-11-15T11:43:48.348Z,2.08
2022-11-15T11:45:00.152Z,5.50
2022-11-15T11:46:31.157Z,2.67
2022-11-15T11:47:39.083Z,1.25
2022-11-15T11:48:45.288Z,2.85
2022-11-15T11:49:53.129Z,6.05
2022-11-15T11:51:01.133Z,3.15
2022-11-15T11:52:11.455Z,3.50
2022-11-15T11:53:19.186Z,2.28
2022-11-15T11:54:25.322Z,4.60
2022-11-15T11:55:31.646Z,1.67
2022-11-15T11:56:36.750Z,1.67
2022-11-15T11:57:44.498Z,1.40
2022-11-15T11:58:47.257Z,2.85
2022-11-15T11:59:55.197Z,4.30
2022-11-15T12:01:08.530Z,3.13
2022-11-15T12:02:21.983Z,2.45
2022-11-15T12:03:30.473Z,4.10
2022-11-15T12:04:39.221Z,6.38
2022-11-15T12:05:45.920Z,3.35
2022-11-15T12:06:53.021Z,3.60
2022-11-15T12:08:04.140Z,3.92
2022-11-15T12:09:15.483Z,1.45
2022-11-15T12:10:24.438Z,3.75
2022-11-15T12:11:32.425Z,2.42
2022-11-15T12:12:43.372Z,18.90
2022-11-15T12:13:49.007Z,12.63
2022-11-15T12:14:55.473Z,4.05
2022-11-15T12:16:09.178Z,3.33
2022-11-15T12:17:13.364Z,5.28
2022-11-15T12:18:18.338Z,4.78
2022-11-15T12:19:20.869Z,4.03
2022-11-15T12:20:25.830Z,5.88
2022-11-15T12:21:38.574Z,4.57
2022-11-15T12:22:45.574Z,3.17
2022-11-15T12:23:51.607Z,2.35
2022-11-15T12:25:01.042Z,4.72
2022-11-15T12:26:07.600Z,5.32
2022-11-15T12:27:23.388Z,2.67
2022-11-15T12:28:37.573Z,1.80
2022-11-15T12:29:43.343Z,5.03
2022-11-15T12:30:50.054Z,8.77
2022-11-15T12:31:56.549Z,1.85
2022-11-15T12:33:00.674Z,5.55
2022-11-15T12:34:07.451Z,5.15
2022-11-15T12:35:26.205Z,4.93
2022-11-15T12:36:40.024Z,2.75
2022-11-15T12:37:51.929Z,1.55
2022-11-15T12:38:57.713Z,2.55
2022-11-15T12:40:24.166Z,5.63
2022-11-15T12:41:28.606Z,4.30
2022-11-15T12:42:41.401Z,3.42
2022-11-15T12:43:45.386Z,3.35
2022-11-15T12:45:00.040Z,2.97
2022-11-15T12:46:07.257Z,3.05
2022-11-15T12:47:25.419Z,14.52
2022-11-15T12:48:58.325Z,2.15
2022-11-15T12:50:00.862Z,2.13
2022-11-15T12:51:03.846Z,3.13
2022-11-15T12:52:09.598Z,9.80
2022-11-15T12:53:36.657Z,3.55
2022-11-15T12:55:29.914Z,4.00
2022-11-15T12:56:32.940Z,4.25
2022-11-15T12:57:43.536Z,2.75
2022-11-15T12:58:48.799Z,2.72
2022-11-15T12:59:51.416Z,4.68
2022-11-15T13:00:53.980Z,4.35
2022-11-15T13:02:02.218Z,10.60
2022-11-15T13:03:28.665Z,4.22
2022-11-15T13:04:32.825Z,3.30
2022-11-15T13:06:01.013Z,3.28
2022-11-15T13:07:06.716Z,7.18
2022-11-15T13:08:08.472Z,5.65
2022-11-15T13:09:44.270Z,7.38
2022-11-15T13:10:46.735Z,1.85
2022-11-15T13:11:54.203Z,3.88
2022-11-15T13:12:59.020Z,4.65
2022-11-15T13:14:00.563Z,3.70
2022-11-15T13:15:23.747Z,4.85
2022-11-15T13:16:26.141Z,8.05
2022-11-15T13:17:38.554Z,4.55
2022-11-15T13:18:41.856Z,2.80
2022-11-15T13:19:43.857Z,3.63
2022-11-15T13:20:47.205Z,3.65
2022-11-15T13:22:08.734Z,2.80
2022-11-15T13:23:13.737Z,4.57
2022-11-15T13:24:18.720Z,1.60
2022-11-15T13:25:43.037Z,3.08
2022-11-15T13:26:45.678Z,3.47
2022-11-15T13:27:50.418Z,1.40
2022-11-15T13:28:56.277Z,4.10
2022-11-15T13:29:57.847Z,2.17
2022-11-15T13:31:02.254Z,3.72
2022-11-15T13:32:04.807Z,4.30
2022-11-15T13:33:10.554Z,3.35
2022-11-15T13:34:50.120Z,3.70
2022-11-15T13:35:49.694Z,3.45
2022-11-15T13:36:52.208Z,4.03
2022-11-15T13:37:55.306Z,4.65
2022-11-15T13:39:01.018Z,2.55
2022-11-15T13:40:20.624Z,6.38
2022-11-15T13:41:25.468Z,3.58
2022-11-15T13:42:31.133Z,6.28
2022-11-15T13:43:37.078Z,4.80
2022-11-15T13:44:39.605Z,3.20
2022-11-15T13:45:42.068Z,2.75
2022-11-15T13:46:44.523Z,7.32
2022-11-15T13:47:47.088Z,4.30
2022-11-15T13:48:54.711Z,2.95
2022-11-15T13:49:59.256Z,1.95
2022-11-15T13:51:01.765Z,4.10
2022-11-15T13:52:07.626Z,3.78
2022-11-15T13:53:11.713Z,1.60
2022-11-15T13:54:22.327Z,2.22
2022-11-15T13:55:26.805Z,3.80
2022-11-15T13:56:31.167Z,7.60
2022-11-15T13:57:43.691Z,7.90
2022-11-15T13:58:48.256Z,7.50
2022-11-15T13:59:53.873Z,6.20
2022-11-15T14:01:02.828Z,3.22
2022-11-15T14:02:14.170Z,3.95
2022-11-15T14:03:19.782Z,5.20
2022-11-15T14:04:25.649Z,3.50
2022-11-15T14:05:27.575Z,4.47
2022-11-15T14:06:32.346Z,4.75
2022-11-15T14:07:41.778Z,4.63
2022-11-15T14:09:17.726Z,3.30
2022-11-15T14:10:29.770Z,4.25
2022-11-15T14:11:32.615Z,4.40
2022-11-15T14:12:36.724Z,1.90
2022-11-15T14:13:38.237Z,2.35
2022-11-15T14:14:48.030Z,3.47
2022-11-15T14:15:50.584Z,1.70
2022-11-15T14:16:54.698Z,2.63
2022-11-15T14:17:57.558Z,1.70
2022-11-15T14:18:59.115Z,3.60
2022-11-15T14:20:01.805Z,3.72
2022-11-15T14:21:07.564Z,2.47
2022-11-15T14:22:15.903Z,2.38
2022-11-15T14:23:25.779Z,4.53
2022-11-15T14:24:32.430Z,3.15
2022-11-15T14:25:36.555Z,5.57
2022-11-15T14:26:38.211Z,3.22
2022-11-15T14:27:41.693Z,9.02
2022-11-15T14:28:44.201Z,2.35
2022-11-15T14:29:47.897Z,2.78
2022-11-15T14:30:52.558Z,4.95
2022-11-15T14:31:56.218Z,4.35